createdAt,value
2019-05-06T00:00:35.288Z,90.2708
2019-05-06T00:01:38.307Z,90.2388
2019-05-06T00:02:43.448Z,90.1518
2019-05-06T00:03:47.293Z,90.4372
2019-05-06T00:04:51.287Z,90.4814
2019-05-06T00:05:54.466Z,90.4967
2019-05-06T00:06:58.275Z,90.1945
2019-05-06T00:08:03.897Z,89.4972
2019-05-06T00:09:07.289Z,89.4286
2019-05-06T00:10:13.392Z,88.7663
2019-05-06T00:11:16.303Z,88.5832
2019-05-06T00:12:20.286Z,88.6656
2019-05-06T00:13:24.147Z,87.9286
2019-05-06T00:14:27.266Z,88.2353
2019-05-06T00:15:31.277Z,88.9433
2019-05-06T00:16:34.906Z,89.8055
2019-05-06T00:17:38.325Z,90.5135
2019-05-06T00:18:41.306Z,91.1864
2019-05-06T00:19:45.317Z,91.5267
2019-05-06T00:20:48.248Z,92.2454
2019-05-06T00:21:51.281Z,92.2911
2019-05-06T00:22:55.275Z,92.2545
2019-05-06T00:23:58.286Z,91.9188
2019-05-06T00:25:02.297Z,91.9158
2019-05-06T00:26:05.283Z,91.5892
2019-05-06T00:27:09.302Z,91.2840
2019-05-06T00:28:13.657Z,91.0552
2019-05-06T00:29:17.317Z,90.6096
2019-05-06T00:30:21.288Z,90.7439
2019-05-06T00:31:24.285Z,90.7668
2019-05-06T00:32:28.290Z,90.7530
2019-05-06T00:33:31.292Z,91.2795
2019-05-06T00:34:35.337Z,91.6716
2019-05-06T00:35:38.294Z,91.5297
2019-05-06T00:36:43.285Z,91.7952
2019-05-06T00:37:47.295Z,91.6411
2019-05-06T00:38:50.302Z,91.2886
2019-05-06T00:39:54.320Z,91.2291
2019-05-06T00:40:57.307Z,90.8614
2019-05-06T00:42:01.324Z,90.2083
2019-05-06T00:43:04.818Z,90.4189
2019-05-06T00:44:08.317Z,90.7515
2019-05-06T00:45:13.592Z,90.8766
2019-05-06T00:46:16.285Z,91.1772
2019-05-06T00:47:20.286Z,90.5150
2019-05-06T00:48:24.435Z,88.7114
2019-05-06T00:49:28.267Z,88.3345
2019-05-06T00:50:31.295Z,87.5380
2019-05-06T00:51:34.300Z,86.5492
2019-05-06T00:52:38.308Z,85.6748
2019-05-06T00:53:41.265Z,86.1738
2019-05-06T00:54:45.267Z,85.7343
2019-05-06T00:55:48.335Z,87.4235
2019-05-06T00:56:51.280Z,86.0594
2019-05-06T00:57:54.540Z,86.3386
2019-05-06T00:58:58.283Z,86.8284
2019-05-06T01:00:04.168Z,87.0298
2019-05-06T01:01:07.303Z,87.7852
2019-05-06T01:02:11.294Z,89.3568
2019-05-06T01:03:14.298Z,89.9458
2019-05-06T01:04:18.316Z,90.5180
2019-05-06T01:05:21.285Z,90.7423
2019-05-06T01:06:24.660Z,90.8217
2019-05-06T01:07:28.297Z,90.5745
2019-05-06T01:08:31.286Z,90.7378
2019-05-06T01:09:35.317Z,90.9041
2019-05-06T01:10:38.301Z,90.9300
2019-05-06T01:11:42.316Z,91.0735
2019-05-06T01:12:47.279Z,90.9682
2019-05-06T01:13:50.310Z,91.0445
2019-05-06T01:14:54.626Z,91.1223
2019-05-06T01:15:58.275Z,91.0735
2019-05-06T01:17:01.334Z,91.3802
2019-05-06T01:18:04.362Z,91.0719
2019-05-06T01:19:08.288Z,90.9361
2019-05-06T01:20:11.261Z,90.8843
2019-05-06T01:21:14.667Z,91.0368
2019-05-06T01:22:18.306Z,90.5867
2019-05-06T01:23:23.379Z,90.8080
2019-05-06T01:24:27.265Z,90.6294
2019-05-06T01:25:30.291Z,88.6274
2019-05-06T01:26:34.339Z,88.4916
2019-05-06T01:27:37.278Z,87.9774
2019-05-06T01:28:40.296Z,87.4800
2019-05-06T01:29:44.288Z,87.0253
2019-05-06T01:30:47.311Z,85.2583
2019-05-06T01:31:51.337Z,85.6336
2019-05-06T01:32:54.488Z,85.2628
2019-05-06T01:33:58.288Z,85.2369
2019-05-06T01:35:00.271Z,85.2903
2019-05-06T01:36:04.537Z,85.1270
2019-05-06T01:37:07.320Z,84.8142
2019-05-06T01:38:10.279Z,84.5090
2019-05-06T01:39:14.298Z,84.4129
2019-05-06T01:40:17.307Z,84.2466
2019-05-06T01:41:21.265Z,83.6072
2019-05-06T01:42:24.656Z,83.5004
2019-05-06T01:43:27.286Z,83.7491
2019-05-06T01:44:30.425Z,82.9618
2019-05-06T01:45:34.874Z,82.5910
2019-05-06T01:46:38.320Z,82.4537
2019-05-06T01:47:41.300Z,82.8779
2019-05-06T01:48:45.289Z,82.9847
2019-05-06T01:49:48.288Z,82.5910
2019-05-06T01:50:51.299Z,82.7817
2019-05-06T01:51:55.294Z,82.7909
2019-05-06T01:52:58.312Z,82.8367
2019-05-06T01:54:03.752Z,82.4994
2019-05-06T01:55:07.286Z,82.7329
2019-05-06T01:56:11.304Z,84.1871
2019-05-06T01:57:14.274Z,83.4333
2019-05-06T01:58:17.350Z,83.7674
2019-05-06T01:59:21.272Z,83.7583
2019-05-06T02:00:24.294Z,83.1846
2019-05-06T02:01:28.283Z,83.2715
2019-05-06T02:02:31.303Z,83.1571
2019-05-06T02:03:35.328Z,82.4933
2019-05-06T02:04:38.292Z,82.8016
2019-05-06T02:05:41.270Z,82.7314
2019-05-06T02:06:45.290Z,82.5223
2019-05-06T02:07:48.256Z,81.5961
2019-05-06T02:08:53.994Z,82.5589
2019-05-06T02:09:57.310Z,81.8082
2019-05-06T02:11:01.305Z,82.4155
2019-05-06T02:12:04.678Z,82.4674
2019-05-06T02:13:08.325Z,82.4765
2019-05-06T02:14:13.994Z,82.5254
2019-05-06T02:15:16.291Z,82.6902
2019-05-06T02:16:20.275Z,82.6581
2019-05-06T02:17:23.875Z,83.7354
2019-05-06T02:18:27.311Z,84.2924
2019-05-06T02:19:30.269Z,84.6403
2019-05-06T02:20:33.980Z,84.4221
2019-05-06T02:21:37.270Z,84.7791
2019-05-06T02:22:40.304Z,84.5136
2019-05-06T02:23:44.298Z,83.9689
2019-05-06T02:24:47.297Z,83.5752
2019-05-06T02:25:51.261Z,83.7156
2019-05-06T02:26:54.467Z,83.5615
2019-05-06T02:27:57.304Z,85.0385
2019-05-06T02:29:04.238Z,85.4368
2019-05-06T02:30:07.282Z,85.3651
2019-05-06T02:31:11.298Z,86.0548
2019-05-06T02:32:25.528Z,87.3976
2019-05-06T02:33:24.733Z,88.4947
2019-05-06T02:34:28.357Z,88.9113
2019-05-06T02:35:31.283Z,89.4606
2019-05-06T02:36:35.303Z,90.0740
2019-05-06T02:37:38.265Z,90.1015
2019-05-06T02:38:50.472Z,90.0374
2019-05-06T02:39:53.135Z,89.9229
2019-05-06T02:40:57.262Z,89.6590
2019-05-06T02:42:00.298Z,89.6895
2019-05-06T02:43:04.274Z,89.4286
2019-05-06T02:44:10.250Z,89.2699
2019-05-06T02:45:15.324Z,88.7388
2019-05-06T02:46:19.291Z,88.7373
2019-05-06T02:47:23.012Z,88.9723
2019-05-06T02:48:27.293Z,89.3004
2019-05-06T02:49:32.795Z,89.2103
2019-05-06T02:50:36.299Z,88.9769
2019-05-06T02:51:40.308Z,89.1417
2019-05-06T02:52:44.049Z,89.2424
2019-05-06T02:53:48.295Z,89.9046
2019-05-06T02:54:53.691Z,90.3502
2019-05-06T02:55:57.317Z,90.3532
2019-05-06T02:57:00.265Z,90.2220
2019-05-06T02:58:03.338Z,89.9733
2019-05-06T02:59:07.271Z,89.7307
2019-05-06T03:00:13.085Z,89.7368
2019-05-06T03:01:17.318Z,89.7627
2019-05-06T03:02:35.593Z,89.8909
2019-05-06T03:03:28.287Z,90.0938
2019-05-06T03:04:33.189Z,90.1488
2019-05-06T03:05:36.318Z,90.1152
2019-05-06T03:06:40.306Z,90.3304
2019-05-06T03:07:43.732Z,90.2266
2019-05-06T03:08:47.289Z,90.1976
2019-05-06T03:09:53.173Z,90.3273
2019-05-06T03:10:57.337Z,90.1564
2019-05-06T03:12:03.341Z,90.3319
2019-05-06T03:13:07.299Z,90.3914
2019-05-06T03:14:13.954Z,90.2892
2019-05-06T03:15:17.331Z,90.6600
2019-05-06T03:16:23.764Z,90.7607
2019-05-06T03:17:27.296Z,90.9072
2019-05-06T03:18:32.765Z,91.1238
2019-05-06T03:19:36.285Z,91.1177
2019-05-06T03:20:39.300Z,91.2566
2019-05-06T03:21:44.817Z,91.5908
2019-05-06T03:22:48.291Z,91.7189
2019-05-06T03:23:54.290Z,91.9875
2019-05-06T03:24:57.301Z,92.2072
2019-05-06T03:26:03.732Z,92.3919
2019-05-06T03:27:09.286Z,92.1904
2019-05-06T03:28:13.258Z,92.3003
2019-05-06T03:29:17.287Z,92.4102
2019-05-06T03:30:25.065Z,92.5277
2019-05-06T03:31:28.360Z,92.6390
2019-05-06T03:32:37.568Z,92.8359
2019-05-06T03:33:56.904Z,93.0541
2019-05-06T03:35:07.810Z,93.0678
2019-05-06T03:36:06.126Z,93.4066
2019-05-06T03:37:07.204Z,93.4295
2019-05-06T03:38:13.752Z,93.5958
2019-05-06T03:39:17.282Z,93.7911
2019-05-06T03:40:22.965Z,93.7911
2019-05-06T03:41:26.664Z,93.7560
2019-05-06T03:42:33.288Z,93.8888
2019-05-06T03:43:36.279Z,93.7057
2019-05-06T03:44:40.301Z,93.7148
2019-05-06T03:45:43.292Z,93.6095
2019-05-06T03:46:47.287Z,93.3425
2019-05-06T03:47:50.306Z,93.2113
2019-05-06T03:48:54.297Z,93.3211
2019-05-06T03:49:57.281Z,93.0587
2019-05-06T03:51:00.302Z,93.0770
2019-05-06T03:52:04.300Z,93.2113
2019-05-06T03:53:07.330Z,93.2692
2019-05-06T03:54:12.784Z,93.3104
2019-05-06T03:55:16.275Z,93.5042
2019-05-06T03:56:23.821Z,93.4447
2019-05-06T03:57:27.272Z,93.0282
2019-05-06T03:58:29.342Z,93.1243
2019-05-06T03:59:33.787Z,93.2235
2019-05-06T04:00:37.284Z,93.1243
2019-05-06T04:01:42.834Z,92.7886
2019-05-06T04:02:45.424Z,92.5658
2019-05-06T04:03:53.717Z,92.5963
2019-05-06T04:04:57.281Z,92.6879
2019-05-06T04:06:00.371Z,92.3369
2019-05-06T04:07:04.286Z,92.4193
2019-05-06T04:08:07.309Z,91.9936
2019-05-06T04:09:13.221Z,91.6716
2019-05-06T04:10:16.346Z,91.8227
2019-05-06T04:11:22.667Z,91.9890
2019-05-06T04:12:25.309Z,92.1523
2019-05-06T04:13:28.341Z,92.2133
2019-05-06T04:14:33.785Z,92.1569
2019-05-06T04:15:37.272Z,92.1614
2019-05-06T04:16:44.123Z,92.2682
2019-05-06T04:17:47.281Z,92.5460
2019-05-06T04:18:53.741Z,92.8679
2019-05-06T04:19:57.344Z,92.7062
2019-05-06T04:21:03.595Z,92.1477
2019-05-06T04:22:07.296Z,92.1584
2019-05-06T04:23:12.977Z,92.1355
2019-05-06T04:24:17.290Z,92.2820
2019-05-06T04:25:23.177Z,92.5109
2019-05-06T04:26:27.296Z,92.4956
2019-05-06T04:27:33.278Z,92.7031
2019-05-06T04:28:37.308Z,92.6711
2019-05-06T04:29:42.794Z,92.7062
2019-05-06T04:30:46.317Z,92.6146
2019-05-06T04:31:50.326Z,92.3781
2019-05-06T04:32:53.567Z,92.3781
2019-05-06T04:34:09.982Z,91.6640
2019-05-06T04:35:05.300Z,91.4336
2019-05-06T04:36:08.342Z,91.8227
2019-05-06T04:37:14.463Z,91.7968
2019-05-06T04:38:18.303Z,91.9875
2019-05-06T04:39:23.387Z,92.2393
2019-05-06T04:40:27.307Z,92.4788
2019-05-06T04:41:34.135Z,92.7581
2019-05-06T04:42:37.262Z,92.6833
2019-05-06T04:43:40.319Z,92.3629
2019-05-06T04:44:44.289Z,92.2118
2019-05-06T04:45:47.289Z,91.8517
2019-05-06T04:46:54.087Z,92.1767
2019-05-06T04:47:57.297Z,92.1950
2019-05-06T04:49:03.834Z,92.1157
2019-05-06T04:50:07.286Z,92.2576
2019-05-06T04:51:13.390Z,92.1309
2019-05-06T04:52:17.351Z,91.7876
2019-05-06T04:53:26.474Z,91.4519
2019-05-06T04:54:28.283Z,91.4336
2019-05-06T04:55:33.619Z,91.3649
2019-05-06T04:56:37.315Z,91.3008
2019-05-06T04:57:40.344Z,91.2016
2019-05-06T04:58:43.289Z,91.3008
2019-05-06T04:59:47.330Z,90.7973
2019-05-06T05:00:52.810Z,90.9087
2019-05-06T05:01:57.346Z,90.7652
2019-05-06T05:02:59.319Z,90.6508
2019-05-06T05:04:03.679Z,90.6294
2019-05-06T05:05:06.366Z,90.2800
2019-05-06T05:06:09.280Z,89.9870
2019-05-06T05:07:13.310Z,89.9153
2019-05-06T05:08:16.317Z,89.4743
2019-05-06T05:09:22.865Z,89.1463
2019-05-06T05:10:26.274Z,89.4194
2019-05-06T05:11:33.091Z,89.3187
2019-05-06T05:12:36.309Z,89.2561
2019-05-06T05:13:39.306Z,89.3202
2019-05-06T05:14:43.284Z,89.3187
2019-05-06T05:15:46.306Z,89.1539
2019-05-06T05:16:50.304Z,88.9387
2019-05-06T05:17:53.324Z,88.9708
2019-05-06T05:18:57.298Z,88.7114
2019-05-06T05:20:02.107Z,88.4947
2019-05-06T05:21:05.313Z,88.3726
2019-05-06T05:22:09.276Z,88.2216
2019-05-06T05:23:12.378Z,88.3574
2019-05-06T05:24:16.303Z,88.5420
2019-05-06T05:25:19.309Z,88.5191
2019-05-06T05:26:23.302Z,88.4352
2019-05-06T05:27:26.273Z,88.5084
2019-05-06T05:28:29.346Z,88.3543
2019-05-06T05:29:33.292Z,88.5969
2019-05-06T05:30:36.340Z,88.5771
2019-05-06T05:31:40.306Z,88.5512
2019-05-06T05:32:43.334Z,87.9683
2019-05-06T05:33:47.311Z,87.0634
2019-05-06T05:34:52.094Z,87.2282
2019-05-06T05:35:54.311Z,87.2496
2019-05-06T05:36:58.283Z,86.2654
2019-05-06T05:38:03.049Z,86.4530
2019-05-06T05:39:07.325Z,87.6295
2019-05-06T05:40:10.324Z,87.4937
2019-05-06T05:41:14.293Z,87.6295
2019-05-06T05:42:17.298Z,87.6722
2019-05-06T05:43:20.292Z,88.2017
2019-05-06T05:44:24.341Z,88.8655
2019-05-06T05:45:28.317Z,88.5130
2019-05-06T05:46:33.016Z,87.8859
2019-05-06T05:47:36.322Z,87.9774
2019-05-06T05:48:39.369Z,87.6249
2019-05-06T05:49:42.338Z,87.2602
2019-05-06T05:50:45.296Z,87.2969
2019-05-06T05:51:49.303Z,86.8742
2019-05-06T05:52:52.297Z,87.2175
2019-05-06T05:53:56.320Z,85.6016
2019-05-06T05:55:02.576Z,86.2425
2019-05-06T05:56:06.275Z,85.8824
2019-05-06T05:57:09.296Z,84.7959
2019-05-06T05:58:12.931Z,84.0467
2019-05-06T05:59:16.313Z,83.0106
2019-05-06T06:00:19.331Z,82.3835
2019-05-06T06:01:23.414Z,81.6693
2019-05-06T06:02:26.267Z,80.7370
2019-05-06T06:03:32.020Z,79.1623
2019-05-06T06:04:36.282Z,79.7330
2019-05-06T06:05:39.411Z,80.7507
2019-05-06T06:06:43.337Z,79.3668
2019-05-06T06:07:46.352Z,79.2081
2019-05-06T06:08:52.122Z,79.2264
2019-05-06T06:09:56.298Z,79.2706
2019-05-06T06:11:00.341Z,78.6114
2019-05-06T06:12:03.301Z,78.5199
2019-05-06T06:13:06.285Z,78.9837
2019-05-06T06:14:12.569Z,79.3683
2019-05-06T06:15:16.326Z,80.7309
2019-05-06T06:16:20.324Z,79.6048
2019-05-06T06:17:23.357Z,79.4369
2019-05-06T06:18:27.311Z,78.9471
2019-05-06T06:19:30.317Z,78.9914
2019-05-06T06:20:33.324Z,78.1628
2019-05-06T06:21:37.333Z,78.0224
2019-05-06T06:22:42.449Z,77.8485
2019-05-06T06:23:46.309Z,78.0179
2019-05-06T06:24:49.337Z,77.3709
2019-05-06T06:25:53.328Z,77.6272
2019-05-06T06:26:56.326Z,76.9680
2019-05-06T06:28:02.689Z,76.1761
2019-05-06T06:29:05.338Z,76.1593
2019-05-06T06:30:08.307Z,75.5718
2019-05-06T06:31:12.337Z,75.6191
2019-05-06T06:32:14.329Z,75.2850
2019-05-06T06:33:18.293Z,75.3246
2019-05-06T06:34:22.287Z,75.2697
2019-05-06T06:35:25.316Z,74.5739
2019-05-06T06:36:29.319Z,74.9035
2019-05-06T06:37:33.214Z,75.3857
2019-05-06T06:38:37.299Z,75.1461
2019-05-06T06:39:42.274Z,75.2346
2019-05-06T06:40:46.322Z,74.7600
2019-05-06T06:41:49.258Z,74.7326
2019-05-06T06:42:52.519Z,74.7051
2019-05-06T06:43:56.296Z,74.3572
2019-05-06T06:44:59.304Z,74.4045
2019-05-06T06:46:03.341Z,74.6181
2019-05-06T06:47:06.303Z,74.0139
2019-05-06T06:48:12.224Z,73.0541
2019-05-06T06:49:15.290Z,72.0500
2019-05-06T06:50:18.334Z,72.1645
2019-05-06T06:51:23.552Z,72.0333
2019-05-06T06:52:27.317Z,72.6284
2019-05-06T06:53:32.687Z,73.3593
2019-05-06T06:54:36.327Z,72.6879
2019-05-06T06:55:39.373Z,72.1157
2019-05-06T06:56:42.401Z,70.8339
2019-05-06T06:57:45.328Z,70.9621
2019-05-06T06:58:49.286Z,70.5348
2019-05-06T06:59:52.484Z,69.6239
2019-05-06T07:00:56.284Z,68.8365
2019-05-06T07:01:59.326Z,68.6168
2019-05-06T07:03:03.295Z,69.5506
2019-05-06T07:04:10.444Z,69.7124
2019-05-06T07:05:24.353Z,70.4524
2019-05-06T07:06:22.441Z,71.9692
2019-05-06T07:07:39.532Z,72.3354
2019-05-06T07:08:37.357Z,72.2469
2019-05-06T07:09:41.905Z,73.0816
2019-05-06T07:10:45.314Z,72.2301
2019-05-06T07:11:48.313Z,70.5730
2019-05-06T07:12:50.442Z,71.5190
2019-05-06T07:13:54.298Z,72.6085
2019-05-06T07:14:57.295Z,73.2998
2019-05-06T07:16:02.983Z,72.8756
2019-05-06T07:17:06.300Z,73.1228
2019-05-06T07:18:13.291Z,72.4987
2019-05-06T07:19:17.326Z,72.6589
2019-05-06T07:20:22.869Z,72.8618
2019-05-06T07:21:26.338Z,72.0882
2019-05-06T07:22:29.291Z,72.6451
2019-05-06T07:23:33.336Z,72.4529
2019-05-06T07:24:36.294Z,71.9417
2019-05-06T07:25:42.829Z,71.4015
2019-05-06T07:26:46.285Z,71.6152
2019-05-06T07:27:48.355Z,71.7617
2019-05-06T07:28:52.737Z,72.1416
2019-05-06T07:29:56.300Z,72.1614
2019-05-06T07:31:14.882Z,71.9265
2019-05-06T07:32:08.276Z,71.2581
2019-05-06T07:33:13.340Z,72.3888
2019-05-06T07:34:17.291Z,72.7230
2019-05-06T07:35:22.410Z,72.0150
2019-05-06T07:36:27.338Z,72.1294
2019-05-06T07:37:32.627Z,71.9356
2019-05-06T07:38:36.290Z,70.8919
2019-05-06T07:39:38.272Z,71.1269
2019-05-06T07:40:42.294Z,70.8186
2019-05-06T07:41:46.140Z,71.1620
2019-05-06T07:42:49.289Z,70.9621
2019-05-06T07:43:53.310Z,68.5542
2019-05-06T07:44:56.337Z,67.3259
2019-05-06T07:46:02.460Z,68.4443
2019-05-06T07:47:06.313Z,69.3462
2019-05-06T07:48:12.647Z,69.9138
2019-05-06T07:49:16.343Z,70.0923
2019-05-06T07:50:19.268Z,68.5252
2019-05-06T07:51:23.932Z,68.5939
2019-05-06T07:52:27.358Z,68.7190
2019-05-06T07:53:32.069Z,68.7785
2019-05-06T07:54:35.276Z,66.9459
2019-05-06T07:55:39.309Z,67.3304
2019-05-06T07:56:42.843Z,66.6621
2019-05-06T07:57:46.333Z,65.3803
2019-05-06T07:58:52.762Z,65.9068
2019-05-06T07:59:56.278Z,67.1702
2019-05-06T08:01:02.667Z,67.1244
2019-05-06T08:02:06.298Z,66.7781
2019-05-06T08:03:10.349Z,66.9551
2019-05-06T08:04:14.342Z,61.8235
2019-05-06T08:05:17.301Z,62.1408
2019-05-06T08:06:22.647Z,60.8026
2019-05-06T08:07:26.294Z,61.1780
2019-05-06T08:08:30.353Z,61.3840
2019-05-06T08:09:33.315Z,63.7964
2019-05-06T08:10:37.333Z,60.7996
2019-05-06T08:11:42.155Z,60.7904
2019-05-06T08:12:45.337Z,60.2579
2019-05-06T08:13:49.319Z,60.6989
2019-05-06T08:14:52.548Z,60.1709
2019-05-06T08:15:56.330Z,61.1292
2019-05-06T08:16:58.298Z,60.3998
2019-05-06T08:18:03.485Z,61.6648
2019-05-06T08:19:07.357Z,61.8067
2019-05-06T08:20:12.721Z,60.6943
2019-05-06T08:21:16.337Z,60.4685
2019-05-06T08:22:19.312Z,60.8804
2019-05-06T08:23:23.314Z,64.4251
2019-05-06T08:24:26.346Z,62.3835
2019-05-06T08:25:32.811Z,61.3336
2019-05-06T08:26:36.255Z,61.4542
2019-05-06T08:27:39.307Z,61.1246
2019-05-06T08:28:44.520Z,60.1862
2019-05-06T08:29:48.362Z,57.1283
2019-05-06T08:30:53.122Z,58.5519
2019-05-06T08:31:56.315Z,59.7360
2019-05-06T08:33:02.242Z,58.7884
2019-05-06T08:34:05.303Z,59.4430
2019-05-06T08:35:09.972Z,59.3164
2019-05-06T08:36:14.790Z,60.6287
2019-05-06T08:37:18.301Z,60.3311
2019-05-06T08:38:22.651Z,59.4675
2019-05-06T08:39:26.312Z,53.0343
2019-05-06T08:40:32.089Z,47.9530
2019-05-06T08:41:35.327Z,43.9750
2019-05-06T08:42:38.277Z,45.4322
2019-05-06T08:43:42.331Z,46.7079
2019-05-06T08:44:45.301Z,46.3523
2019-05-06T08:45:49.384Z,44.2741
2019-05-06T08:46:53.254Z,44.7044
2019-05-06T08:47:57.292Z,49.6712
2019-05-06T08:49:00.839Z,50.7042
2019-05-06T08:50:05.305Z,51.5206
2019-05-06T08:51:09.333Z,51.2825
2019-05-06T08:52:12.997Z,50.9438
2019-05-06T08:53:16.308Z,51.0033
2019-05-06T08:54:19.311Z,53.3608
2019-05-06T08:55:23.342Z,56.0510
2019-05-06T08:56:26.324Z,55.6451
2019-05-06T08:57:29.332Z,53.6751
2019-05-06T08:58:33.334Z,52.4437
2019-05-06T08:59:36.341Z,49.3996
2019-05-06T09:00:40.291Z,49.0562
2019-05-06T09:01:43.322Z,48.8243
2019-05-06T09:02:47.307Z,51.5297
2019-05-06T09:04:05.046Z,50.8232
2019-05-06T09:04:58.301Z,51.2871
2019-05-06T09:06:03.168Z,50.4906
2019-05-06T09:07:07.338Z,50.4540
2019-05-06T09:08:13.634Z,52.5444
2019-05-06T09:09:17.369Z,52.9061
2019-05-06T09:10:22.695Z,52.1294
2019-05-06T09:11:26.292Z,50.1686
2019-05-06T09:12:29.320Z,52.2194
2019-05-06T09:13:33.358Z,51.3237
2019-05-06T09:14:36.321Z,51.4427
2019-05-06T09:15:40.307Z,51.2215
2019-05-06T09:16:43.928Z,51.8364
2019-05-06T09:17:48.335Z,52.9747
2019-05-06T09:18:53.341Z,54.4411
2019-05-06T09:19:56.321Z,54.2657
2019-05-06T09:21:02.819Z,54.4549
2019-05-06T09:22:06.302Z,53.3959
2019-05-06T09:23:12.269Z,51.7662
2019-05-06T09:24:16.277Z,51.5846
2019-05-06T09:25:20.324Z,51.3039
2019-05-06T09:26:23.301Z,51.2322
2019-05-06T09:27:26.299Z,49.3400
2019-05-06T09:28:30.347Z,49.9413
2019-05-06T09:29:33.284Z,49.9397
2019-05-06T09:30:37.328Z,49.1264
2019-05-06T09:31:39.327Z,47.9438
2019-05-06T09:32:43.315Z,48.2734
2019-05-06T09:33:46.320Z,46.4668
2019-05-06T09:34:49.283Z,46.0029
2019-05-06T09:35:53.306Z,45.5924
2019-05-06T09:36:56.323Z,46.6407
2019-05-06T09:38:02.209Z,47.5105
2019-05-06T09:39:05.328Z,47.9591
2019-05-06T09:40:09.310Z,47.6936
2019-05-06T09:41:13.342Z,48.4031
2019-05-06T09:42:16.325Z,47.2251
2019-05-06T09:43:22.282Z,47.6600
2019-05-06T09:44:26.333Z,46.7872
2019-05-06T09:45:29.309Z,48.3848
2019-05-06T09:46:32.320Z,49.3767
2019-05-06T09:47:37.273Z,49.6117
2019-05-06T09:48:42.325Z,48.9525
2019-05-06T09:49:46.309Z,49.5476
2019-05-06T09:50:50.419Z,48.6595
2019-05-06T09:51:53.325Z,49.8024
2019-05-06T09:52:57.275Z,48.7953
2019-05-06T09:54:03.742Z,48.5481
2019-05-06T09:55:07.335Z,47.5364
2019-05-06T09:56:12.965Z,46.3096
2019-05-06T09:57:16.314Z,46.1265
2019-05-06T09:58:22.733Z,42.7085
2019-05-06T09:59:26.327Z,45.2247
2019-05-06T10:00:32.694Z,44.6387
2019-05-06T10:01:36.404Z,45.3758
2019-05-06T10:02:42.858Z,46.0594
2019-05-06T10:03:46.333Z,47.1672
2019-05-06T10:04:49.284Z,46.3416
2019-05-06T10:05:55.375Z,46.8055
2019-05-06T10:07:00.103Z,46.2501
2019-05-06T10:08:04.336Z,48.0323
2019-05-06T10:09:07.293Z,47.4144
2019-05-06T10:10:11.316Z,47.9072
2019-05-06T10:11:13.343Z,43.7278
2019-05-06T10:12:16.339Z,44.5212
2019-05-06T10:13:20.308Z,47.0985
2019-05-06T10:14:23.565Z,48.0095
2019-05-06T10:15:27.349Z,47.4586
2019-05-06T10:16:32.394Z,45.0736
2019-05-06T10:17:36.313Z,47.0527
2019-05-06T10:18:39.332Z,48.0629
2019-05-06T10:19:42.886Z,46.1418
2019-05-06T10:20:47.283Z,46.6819
2019-05-06T10:21:50.347Z,47.0237
2019-05-06T10:22:54.323Z,46.6712
2019-05-06T10:23:57.314Z,48.0095
2019-05-06T10:25:03.716Z,46.6987
2019-05-06T10:26:07.303Z,45.4398
2019-05-06T10:27:12.089Z,46.5080
2019-05-06T10:28:16.297Z,47.1168
2019-05-06T10:29:19.312Z,46.1509
2019-05-06T10:30:23.311Z,46.3203
2019-05-06T10:31:26.311Z,47.5685
2019-05-06T10:32:30.318Z,47.3457
2019-05-06T10:33:33.317Z,46.2593
2019-05-06T10:34:36.294Z,47.2572
2019-05-06T10:35:42.685Z,45.7557
2019-05-06T10:36:46.336Z,45.7023
2019-05-06T10:37:52.481Z,46.8971
2019-05-06T10:38:56.325Z,45.9998
2019-05-06T10:40:02.861Z,45.4124
2019-05-06T10:41:07.604Z,46.0533
2019-05-06T10:42:13.211Z,47.9713
2019-05-06T10:43:17.337Z,46.9291
2019-05-06T10:44:22.376Z,45.8396
2019-05-06T10:45:26.305Z,46.4424
2019-05-06T10:46:28.345Z,46.1128
2019-05-06T10:47:33.054Z,47.6371
2019-05-06T10:48:36.336Z,47.6371
2019-05-06T10:49:39.347Z,48.2002
2019-05-06T10:50:43.283Z,46.4576
2019-05-06T10:51:46.351Z,44.8997
2019-05-06T10:52:51.798Z,46.9871
2019-05-06T10:53:55.279Z,44.5014
2019-05-06T10:54:59.329Z,44.0391
2019-05-06T10:56:02.447Z,45.4368
2019-05-06T10:57:05.351Z,45.2674
2019-05-06T10:58:09.269Z,46.0807
2019-05-06T10:59:12.982Z,45.7343
2019-05-06T11:00:16.346Z,44.9470
2019-05-06T11:01:19.320Z,43.8025
2019-05-06T11:02:23.373Z,43.7156
2019-05-06T11:03:27.670Z,41.6373
2019-05-06T11:04:33.144Z,43.6652
2019-05-06T11:05:37.327Z,43.1281
2019-05-06T11:06:42.833Z,43.3387
2019-05-06T11:07:46.317Z,44.7364
2019-05-06T11:08:48.325Z,44.3137
2019-05-06T11:09:53.301Z,43.1693
2019-05-06T11:10:56.359Z,42.7405
2019-05-06T11:11:59.278Z,42.2675
2019-05-06T11:13:03.489Z,43.0503
2019-05-06T11:14:07.330Z,43.2807
2019-05-06T11:15:12.409Z,44.0726
2019-05-06T11:16:17.035Z,44.5670
2019-05-06T11:17:23.264Z,46.2837
2019-05-06T11:18:27.326Z,46.0349
2019-05-06T11:19:30.278Z,45.4917
2019-05-06T11:20:34.333Z,44.4114
2019-05-06T11:21:37.311Z,45.7435
2019-05-06T11:22:43.461Z,44.9317
2019-05-06T11:23:47.347Z,43.3936
2019-05-06T11:24:51.336Z,39.4492
2019-05-06T11:25:54.270Z,41.6449
2019-05-06T11:26:57.292Z,41.4389
2019-05-06T11:28:02.969Z,42.4826
2019-05-06T11:29:06.292Z,42.7253
2019-05-06T11:30:10.308Z,43.6179
2019-05-06T11:31:14.137Z,43.8529
2019-05-06T11:32:21.049Z,44.3778
2019-05-06T11:33:24.325Z,46.7170
2019-05-06T11:34:27.294Z,45.6886
2019-05-06T11:35:32.517Z,45.1240
2019-05-06T11:36:37.631Z,45.1118
2019-05-06T11:37:46.974Z,44.9928
2019-05-06T11:38:52.149Z,45.0187
2019-05-06T11:39:56.322Z,42.6307
2019-05-06T11:40:59.319Z,45.5772
2019-05-06T11:42:23.959Z,46.1234
2019-05-06T11:43:11.962Z,45.8305
2019-05-06T11:44:15.364Z,45.7008
2019-05-06T11:45:19.290Z,45.2674
2019-05-06T11:46:22.850Z,45.3346
2019-05-06T11:47:26.288Z,46.8925
2019-05-06T11:48:29.287Z,45.5787
2019-05-06T11:49:32.748Z,46.4012
2019-05-06T11:50:36.284Z,46.0502
2019-05-06T11:51:39.339Z,45.0431
2019-05-06T11:52:43.674Z,45.5146
2019-05-06T11:53:47.304Z,46.6621
2019-05-06T11:54:52.821Z,43.3844
2019-05-06T11:55:56.330Z,46.7765
2019-05-06T11:56:59.294Z,44.4053
2019-05-06T11:58:02.706Z,44.2313
2019-05-06T11:59:06.301Z,46.1326
2019-05-06T12:00:12.504Z,45.8427
2019-05-06T12:01:16.306Z,46.5293
2019-05-06T12:02:20.297Z,45.5787
2019-05-06T12:03:23.433Z,42.7955
2019-05-06T12:04:28.301Z,45.0690
2019-05-06T12:05:33.012Z,44.1367
2019-05-06T12:06:36.367Z,42.6978
2019-05-06T12:07:40.340Z,42.6032
2019-05-06T12:08:43.370Z,42.8412
2019-05-06T12:09:47.325Z,44.4846
2019-05-06T12:10:52.018Z,45.9388
2019-05-06T12:11:55.301Z,45.0553
2019-05-06T12:12:59.330Z,39.4842
2019-05-06T12:14:02.647Z,41.1978
2019-05-06T12:15:07.162Z,41.3764
2019-05-06T12:16:13.731Z,39.5941
2019-05-06T12:17:18.326Z,39.2691
2019-05-06T12:18:23.071Z,43.1296
2019-05-06T12:19:26.399Z,43.1525
2019-05-06T12:20:30.318Z,42.2553
2019-05-06T12:21:33.294Z,43.5264
2019-05-06T12:22:36.315Z,43.9796
2019-05-06T12:23:39.324Z,42.4796
2019-05-06T12:24:43.308Z,43.2120
2019-05-06T12:25:46.467Z,45.1652
2019-05-06T12:26:49.363Z,44.4892
2019-05-06T12:27:53.301Z,44.0177
2019-05-06T12:28:56.286Z,44.7089
2019-05-06T12:30:00.345Z,41.6495
2019-05-06T12:31:03.306Z,39.8138
2019-05-06T12:32:07.309Z,43.0228
2019-05-06T12:33:10.299Z,44.3458
2019-05-06T12:34:14.764Z,42.7405
2019-05-06T12:35:18.319Z,44.3839
2019-05-06T12:36:21.312Z,45.3086
2019-05-06T12:37:25.318Z,47.3182
2019-05-06T12:38:30.839Z,46.5522
2019-05-06T12:39:35.297Z,46.3645
2019-05-06T12:40:38.355Z,44.8676
2019-05-06T12:41:43.059Z,43.9750
2019-05-06T12:42:47.351Z,43.9384
2019-05-06T12:43:50.329Z,44.5472
2019-05-06T12:44:54.327Z,46.5263
2019-05-06T12:45:57.327Z,44.3244
2019-05-06T12:47:03.340Z,45.4322
2019-05-06T12:48:07.283Z,46.8727
2019-05-06T12:49:12.585Z,45.5131
2019-05-06T12:50:16.299Z,46.7216
2019-05-06T12:51:19.367Z,46.1830
2019-05-06T12:52:23.367Z,45.9892
2019-05-06T12:53:26.319Z,47.6158
2019-05-06T12:54:30.313Z,47.0848